createdAt,value
2023-02-06T00:01:48.702Z,12.50
2023-02-06T00:04:16.644Z,12.50
2023-02-06T00:06:44.916Z,11.70
2023-02-06T00:09:13.370Z,14.30
2023-02-06T00:11:41.563Z,11.50
2023-02-06T00:14:09.411Z,12.50
2023-02-06T00:16:57.222Z,12.00
2023-02-06T00:19:27.506Z,12.10
2023-02-06T00:21:55.582Z,14.20
2023-02-06T00:24:23.933Z,11.90
2023-02-06T00:26:52.364Z,13.40
2023-02-06T00:29:20.360Z,13.00
2023-02-06T00:31:48.795Z,10.50
2023-02-06T00:34:16.744Z,10.60
2023-02-06T00:36:44.608Z,10.20
2023-02-06T00:39:12.601Z,10.70
2023-02-06T00:41:41.709Z,10.60
2023-02-06T00:44:09.579Z,10.40
2023-02-06T00:46:37.668Z,10.70
2023-02-06T00:49:05.613Z,12.30
2023-02-06T00:51:36.220Z,11.60
2023-02-06T00:54:04.105Z,12.20
2023-02-06T00:56:32.218Z,12.20
2023-02-06T00:59:00.274Z,13.20
2023-02-06T01:01:28.629Z,12.20
2023-02-06T01:03:56.613Z,11.90
2023-02-06T01:06:24.885Z,11.60
2023-02-06T01:08:52.842Z,11.20
2023-02-06T01:11:22.612Z,12.20
2023-02-06T01:13:50.572Z,12.40
2023-02-06T01:16:21.783Z,11.80
2023-02-06T01:18:49.913Z,11.40
2023-02-06T01:21:20.556Z,13.20
2023-02-06T01:23:49.563Z,13.20
2023-02-06T01:26:19.809Z,12.10
2023-02-06T01:28:48.103Z,11.90
2023-02-06T01:31:18.652Z,13.00
2023-02-06T01:33:47.529Z,11.40
2023-02-06T01:36:15.607Z,11.50
2023-02-06T01:38:44.251Z,10.80
2023-02-06T01:41:12.785Z,10.30
2023-02-06T01:43:44.131Z,11.70
2023-02-06T01:46:12.233Z,11.80
2023-02-06T01:48:45.741Z,12.70
2023-02-06T01:51:15.731Z,11.10
2023-02-06T01:53:44.530Z,13.40
2023-02-06T01:56:14.283Z,12.10
2023-02-06T01:58:43.024Z,12.10
2023-02-06T02:01:11.099Z,13.00
2023-02-06T02:03:41.404Z,12.70
2023-02-06T02:06:12.099Z,12.10
2023-02-06T02:08:42.577Z,11.20
2023-02-06T02:11:11.988Z,9.30
2023-02-06T02:13:41.976Z,9.40
2023-02-06T02:16:20.054Z,8.90
2023-02-06T02:19:25.406Z,10.70
2023-02-06T02:22:21.271Z,10.40
2023-02-06T02:25:15.939Z,10.50
2023-02-06T02:28:22.908Z,10.10
2023-02-06T02:31:12.752Z,10.90
2023-02-06T02:33:53.784Z,10.20
2023-02-06T02:36:25.756Z,10.20
2023-02-06T02:39:26.140Z,11.40
2023-02-06T02:41:58.044Z,9.10
2023-02-06T02:44:37.917Z,10.00
2023-02-06T02:47:07.531Z,11.10
2023-02-06T02:49:35.525Z,8.20
2023-02-06T02:52:04.070Z,10.00
2023-02-06T02:54:32.011Z,9.30
2023-02-06T02:57:06.687Z,10.20
2023-02-06T02:59:36.695Z,10.60
2023-02-06T03:02:32.580Z,10.60
2023-02-06T03:05:04.258Z,10.10
2023-02-06T03:07:34.180Z,10.10
2023-02-06T03:10:32.319Z,10.60
2023-02-06T03:13:09.284Z,12.00
2023-02-06T03:15:43.749Z,12.10
2023-02-06T03:18:22.925Z,10.70
2023-02-06T03:20:51.083Z,11.50
2023-02-06T03:23:25.135Z,9.90
2023-02-06T03:25:55.097Z,10.00
2023-02-06T03:28:34.114Z,10.00
2023-02-06T03:31:03.512Z,11.10
2023-02-06T03:33:38.105Z,11.10
2023-02-06T03:36:06.402Z,10.80
2023-02-06T03:38:35.876Z,11.10
2023-02-06T03:41:03.897Z,12.30
2023-02-06T03:43:32.960Z,12.00
2023-02-06T03:46:02.436Z,12.40
2023-02-06T03:48:33.847Z,13.00
2023-02-06T03:51:05.163Z,12.10
2023-02-06T03:53:34.849Z,12.70
2023-02-06T03:56:07.592Z,11.40
2023-02-06T03:58:36.638Z,11.10
2023-02-06T04:01:05.125Z,10.60
2023-02-06T04:03:33.144Z,11.50
2023-02-06T04:06:01.265Z,9.90
2023-02-06T04:08:30.704Z,11.60
2023-02-06T04:10:58.657Z,12.60
2023-02-06T04:13:27.543Z,12.60
2023-02-06T04:15:56.381Z,12.80
2023-02-06T04:18:24.629Z,12.70
2023-02-06T04:20:54.624Z,11.40
2023-02-06T04:23:22.842Z,14.20
2023-02-06T04:25:50.830Z,13.70
2023-02-06T04:28:19.222Z,13.90
2023-02-06T04:30:51.207Z,11.00
2023-02-06T04:33:19.366Z,10.10
2023-02-06T04:35:48.895Z,10.30
2023-02-06T04:38:16.791Z,11.30
2023-02-06T04:40:44.665Z,10.90
2023-02-06T04:43:12.672Z,11.90
2023-02-06T04:45:41.982Z,12.10
2023-02-06T04:48:10.443Z,12.50
2023-02-06T04:50:39.010Z,12.70
2023-02-06T04:53:07.027Z,13.20
2023-02-06T04:55:35.788Z,14.70
2023-02-06T04:58:04.168Z,12.80
2023-02-06T05:00:32.570Z,12.30
2023-02-06T05:03:00.565Z,13.00
2023-02-06T05:05:28.727Z,12.00
2023-02-06T05:07:56.586Z,10.20
2023-02-06T05:10:24.559Z,10.80
2023-02-06T05:12:53.194Z,11.30
2023-02-06T05:15:21.358Z,11.70
2023-02-06T05:17:50.011Z,11.10
2023-02-06T05:20:18.793Z,11.70
2023-02-06T05:22:47.810Z,12.60
2023-02-06T05:25:15.934Z,12.70
2023-02-06T05:27:44.305Z,12.70
2023-02-06T05:30:12.910Z,13.30
2023-02-06T05:32:42.152Z,11.90
2023-02-06T05:35:10.170Z,11.90
2023-02-06T05:37:38.596Z,13.00
2023-02-06T05:40:07.227Z,10.90
2023-02-06T05:42:35.399Z,10.50
2023-02-06T05:45:03.605Z,11.40
2023-02-06T05:47:31.493Z,12.50
2023-02-06T06:26:13.304Z,16.80
2023-02-06T06:28:41.681Z,14.50
2023-02-06T06:31:11.852Z,12.80
2023-02-06T06:33:40.120Z,13.00
2023-02-06T06:36:08.881Z,13.50
2023-02-06T06:38:37.173Z,17.90
2023-02-06T06:41:05.284Z,13.80
2023-02-06T06:43:33.639Z,26.60
2023-02-06T06:46:01.915Z,28.40
2023-02-06T06:48:29.936Z,15.40
2023-02-06T06:50:57.854Z,16.10
2023-02-06T06:53:26.154Z,14.30
2023-02-06T06:55:54.380Z,16.10
2023-02-06T06:58:22.286Z,15.10
2023-02-06T07:00:50.185Z,14.50
2023-02-06T07:03:18.337Z,16.70
2023-02-06T07:05:47.348Z,16.70
2023-02-06T07:08:15.200Z,14.30
2023-02-06T07:10:43.699Z,13.30
2023-02-06T07:13:12.599Z,14.50
2023-02-06T07:15:41.029Z,12.40
2023-02-06T07:18:10.720Z,14.50
2023-02-06T07:20:39.862Z,15.80
2023-02-06T07:23:08.044Z,14.30
2023-02-06T07:25:36.811Z,14.10
2023-02-06T07:28:05.681Z,15.30
2023-02-06T07:30:34.147Z,16.60
2023-02-06T07:33:04.889Z,16.80
2023-02-06T07:35:34.285Z,17.70
2023-02-06T07:38:02.526Z,15.20
2023-02-06T07:40:43.930Z,15.40
2023-02-06T07:43:13.452Z,18.40
2023-02-06T07:45:41.769Z,18.30
2023-02-06T07:48:10.018Z,15.70
2023-02-06T07:50:38.432Z,15.20
2023-02-06T07:53:08.251Z,13.80
2023-02-06T07:55:38.296Z,13.50
2023-02-06T07:58:06.307Z,13.30
2023-02-06T08:00:34.451Z,13.30
2023-02-06T08:03:03.111Z,15.20
2023-02-06T08:05:31.768Z,15.30
2023-02-06T08:07:59.774Z,15.70
2023-02-06T08:10:27.698Z,14.20
2023-02-06T08:13:15.740Z,13.20
2023-02-06T08:15:45.225Z,13.20
2023-02-06T08:18:16.298Z,15.80
2023-02-06T08:20:44.225Z,34.50
2023-02-06T08:23:12.056Z,18.10
2023-02-06T08:25:39.954Z,16.60
2023-02-06T08:28:08.139Z,14.00
2023-02-06T08:30:37.069Z,13.20
2023-02-06T08:33:05.074Z,16.00
2023-02-06T08:35:33.661Z,14.60
2023-02-06T08:38:02.060Z,13.30
2023-02-06T08:40:31.377Z,12.10
2023-02-06T08:42:59.202Z,11.60
2023-02-06T08:45:27.017Z,11.80
2023-02-06T08:47:55.086Z,11.80
2023-02-06T08:50:23.055Z,12.30
2023-02-06T08:52:51.218Z,11.80
2023-02-06T08:55:19.986Z,13.40
2023-02-06T08:57:53.318Z,17.10
2023-02-06T09:00:21.669Z,14.10
2023-02-06T09:02:49.684Z,13.60
2023-02-06T09:05:17.656Z,11.00
2023-02-06T09:07:46.524Z,12.60
2023-02-06T09:10:26.822Z,12.90
2023-02-06T09:12:56.058Z,11.80
2023-02-06T09:15:24.044Z,10.30
2023-02-06T09:17:52.011Z,10.50
2023-02-06T09:20:20.963Z,14.80
2023-02-06T09:22:48.980Z,11.30
2023-02-06T09:25:16.971Z,10.90
2023-02-06T09:27:46.896Z,9.00
2023-02-06T09:30:15.158Z,10.10
2023-02-06T09:32:43.497Z,10.30
2023-02-06T09:35:11.485Z,13.70
2023-02-06T09:37:39.368Z,9.30
2023-02-06T09:40:08.542Z,9.50
2023-02-06T09:42:38.358Z,9.50
2023-02-06T09:45:08.212Z,8.60
2023-02-06T09:47:39.453Z,9.70
2023-02-06T09:50:16.707Z,9.20
2023-02-06T09:52:57.594Z,27.40
2023-02-06T09:55:43.464Z,22.90
2023-02-06T09:58:21.258Z,65.60
2023-02-06T10:00:53.471Z,38.20
2023-02-06T10:03:33.690Z,13.10
2023-02-06T10:06:19.528Z,22.40
2023-02-06T10:08:55.931Z,14.60
2023-02-06T10:11:39.314Z,10.30
2023-02-06T10:14:32.446Z,14.30
2023-02-06T10:17:05.538Z,9.50
2023-02-06T10:19:39.451Z,10.00
2023-02-06T10:22:17.062Z,9.50
2023-02-06T10:25:05.972Z,12.10
2023-02-06T10:27:34.698Z,9.00
2023-02-06T10:30:02.882Z,10.90
2023-02-06T10:32:44.855Z,8.40
2023-02-06T10:35:47.304Z,9.60
2023-02-06T10:38:22.050Z,9.20
2023-02-06T10:41:08.796Z,7.30
2023-02-06T10:43:49.793Z,8.80
2023-02-06T10:46:23.937Z,9.90
2023-02-06T10:49:20.607Z,9.80
2023-02-06T10:51:53.164Z,8.50
2023-02-06T10:54:31.773Z,12.90
2023-02-06T10:57:01.460Z,9.50
2023-02-06T10:59:39.100Z,9.10
2023-02-06T11:02:11.883Z,11.10
2023-02-06T11:04:42.855Z,7.70
2023-02-06T11:07:33.822Z,7.20
2023-02-06T11:10:04.708Z,7.20
2023-02-06T11:13:05.071Z,7.00
2023-02-06T11:15:37.013Z,7.00
2023-02-06T11:20:37.035Z,7.20
2023-02-06T11:23:20.692Z,7.90
2023-02-06T11:26:14.373Z,7.00
2023-02-06T11:29:01.859Z,7.50
2023-02-06T11:32:00.369Z,9.50
2023-02-06T11:34:36.679Z,17.30
2023-02-06T11:37:07.370Z,13.20
2023-02-06T11:39:39.498Z,15.10
2023-02-06T11:42:28.789Z,16.50
2023-02-06T11:44:57.348Z,17.90
2023-02-06T11:47:32.948Z,18.30
2023-02-06T11:50:13.097Z,21.90
2023-02-06T11:52:46.753Z,22.20
2023-02-06T11:55:22.394Z,24.70
2023-02-06T11:58:12.044Z,17.30
2023-02-06T12:01:06.669Z,9.70
2023-02-06T12:03:34.909Z,9.80
2023-02-06T12:06:14.915Z,9.30
2023-02-06T12:08:50.298Z,10.30
2023-02-06T12:11:22.522Z,9.60
2023-02-06T12:14:13.175Z,8.00
2023-02-06T12:19:37.055Z,10.40
2023-02-06T12:22:11.927Z,7.90
2023-02-06T12:24:43.331Z,8.50
2023-02-06T12:27:34.607Z,8.80
2023-02-06T12:30:20.579Z,14.40
2023-02-06T12:32:52.754Z,15.30
2023-02-06T12:35:31.663Z,9.40
2023-02-06T12:38:41.161Z,30.20
2023-02-06T12:41:22.471Z,12.30
2023-02-06T12:43:59.657Z,13.20
2023-02-06T12:46:29.590Z,10.90
2023-02-06T12:49:07.819Z,9.90
2023-02-06T12:51:45.303Z,9.50
2023-02-06T12:54:19.879Z,8.20
2023-02-06T12:57:12.980Z,7.40
2023-02-06T12:59:57.841Z,8.60
2023-02-06T13:02:50.978Z,9.30
2023-02-06T13:05:37.365Z,12.60
2023-02-06T13:08:14.812Z,17.00
2023-02-06T13:10:43.781Z,15.60
2023-02-06T13:13:26.106Z,18.60
2023-02-06T13:18:41.202Z,10.50
2023-02-06T13:21:36.237Z,9.50
2023-02-06T13:24:04.067Z,9.10
2023-02-06T13:26:53.221Z,11.10
2023-02-06T13:29:25.438Z,12.70
2023-02-06T13:32:11.989Z,10.80
2023-02-06T13:34:47.126Z,11.00
2023-02-06T13:37:40.238Z,10.40
2023-02-06T13:40:23.415Z,12.30
2023-02-06T13:42:54.859Z,12.10
2023-02-06T13:45:32.093Z,12.90
2023-02-06T13:48:07.956Z,12.30
2023-02-06T13:50:48.730Z,14.00
2023-02-06T13:53:41.487Z,13.20
2023-02-06T13:56:27.963Z,13.00
2023-02-06T13:58:56.633Z,14.80
2023-02-06T14:01:30.869Z,19.70
2023-02-06T14:15:21.462Z,22.00
2023-02-06T14:18:01.790Z,15.20
2023-02-06T14:20:57.504Z,41.90
2023-02-06T14:23:35.822Z,43.80
2023-02-06T14:26:21.804Z,38.90
2023-02-06T14:29:11.213Z,65.20
2023-02-06T14:31:39.711Z,64.30
2023-02-06T14:34:22.926Z,41.70
2023-02-06T14:37:10.230Z,33.60
2023-02-06T14:39:49.043Z,26.60
2023-02-06T14:42:24.027Z,32.90
2023-02-06T14:45:03.166Z,76.40
2023-02-06T14:47:33.827Z,28.80
2023-02-06T14:50:01.788Z,17.30
2023-02-06T14:52:30.813Z,13.10
2023-02-06T14:54:58.808Z,11.30
2023-02-06T14:57:30.787Z,10.90
2023-02-06T15:00:01.584Z,12.50
2023-02-06T15:02:34.614Z,14.00
2023-02-06T15:05:03.720Z,15.30
2023-02-06T15:07:37.320Z,20.10
2023-02-06T15:10:14.195Z,20.10
2023-02-06T15:12:50.876Z,20.40
2023-02-06T15:15:25.927Z,20.50
2023-02-06T15:18:04.704Z,21.80
2023-02-06T15:20:56.175Z,17.20
2023-02-06T15:23:30.453Z,17.30
2023-02-06T15:26:29.218Z,15.80
2023-02-06T15:29:01.754Z,15.50
2023-02-06T15:31:30.137Z,16.60
2023-02-06T15:33:59.997Z,16.10
2023-02-06T15:36:31.892Z,13.20
2023-02-06T15:39:00.417Z,12.60
2023-02-06T15:41:29.702Z,16.30
2023-02-06T15:44:02.826Z,13.50
2023-02-06T15:46:31.325Z,12.20
2023-02-06T15:48:59.700Z,13.00
2023-02-06T15:51:38.840Z,11.80
2023-02-06T15:54:17.381Z,15.90
2023-02-06T15:56:50.279Z,19.90
2023-02-06T15:59:24.212Z,14.50
2023-02-06T16:01:54.273Z,18.90
2023-02-06T16:04:33.288Z,17.60
2023-02-06T16:07:13.259Z,14.70
2023-02-06T16:10:04.061Z,15.00
2023-02-06T16:12:36.434Z,13.80
2023-02-06T16:15:33.496Z,15.40
2023-02-06T16:18:18.725Z,13.20
2023-02-06T16:20:47.149Z,21.10
2023-02-06T16:23:17.956Z,17.10
2023-02-06T16:25:47.272Z,13.60
2023-02-06T16:28:23.143Z,14.50
2023-02-06T16:31:04.432Z,14.50
2023-02-06T18:19:05.356Z,19.50
2023-02-06T18:21:34.154Z,15.90
2023-02-06T18:24:01.964Z,15.70
2023-02-06T18:26:30.195Z,17.20
2023-02-06T18:28:58.426Z,20.90
2023-02-06T18:31:33.011Z,18.30
2023-02-06T18:34:02.893Z,16.50
2023-02-06T18:36:30.898Z,19.70
2023-02-06T18:38:58.822Z,20.10
2023-02-06T18:41:45.411Z,20.00
2023-02-06T18:44:13.235Z,20.00
2023-02-06T18:46:41.072Z,21.50
2023-02-06T18:49:08.934Z,17.60
2023-02-06T18:51:38.503Z,18.20
2023-02-06T18:54:07.810Z,17.10
2023-02-06T18:56:37.019Z,17.70
2023-02-06T18:59:05.114Z,20.40
2023-02-06T19:01:33.212Z,20.90
2023-02-06T19:04:01.461Z,22.00
2023-02-06T19:06:32.205Z,20.10
2023-02-06T19:09:00.163Z,25.20
2023-02-06T19:11:28.234Z,38.50
2023-02-06T19:13:56.178Z,33.30
2023-02-06T19:16:26.436Z,30.40
2023-02-06T19:18:54.491Z,25.70
2023-02-06T19:21:23.509Z,26.60
2023-02-06T19:24:00.480Z,24.20
2023-02-06T19:26:28.599Z,25.90
2023-02-06T19:28:57.029Z,25.90
2023-02-06T19:31:25.028Z,23.20
2023-02-06T19:33:55.408Z,23.90
2023-02-06T19:36:24.027Z,26.20
2023-02-06T19:38:55.006Z,22.50
2023-02-06T19:41:24.497Z,21.30
2023-02-06T19:43:53.573Z,23.70
2023-02-06T19:46:23.064Z,26.90
2023-02-06T19:48:52.643Z,24.30
2023-02-06T19:51:25.757Z,22.80
2023-02-06T19:53:54.431Z,29.10
2023-02-06T19:56:27.090Z,23.90
2023-02-06T19:58:59.398Z,25.20
2023-02-06T20:01:30.250Z,24.90
2023-02-06T20:03:58.952Z,24.70
2023-02-06T20:06:28.350Z,27.00
2023-02-06T20:08:56.614Z,25.50
2023-02-06T20:11:25.611Z,22.00
2023-02-06T20:13:55.688Z,18.60
2023-02-06T20:16:29.082Z,17.70
2023-02-06T20:18:57.800Z,16.00
2023-02-06T20:21:39.405Z,17.20
2023-02-06T20:24:18.667Z,17.50
2023-02-06T20:26:46.760Z,16.30
2023-02-06T20:29:31.489Z,18.00
2023-02-06T20:31:59.697Z,17.00
2023-02-06T20:34:27.901Z,16.90
2023-02-06T20:36:56.507Z,17.00
2023-02-06T20:39:24.729Z,16.80
2023-02-06T20:41:52.780Z,15.40
2023-02-06T20:44:20.832Z,16.10
2023-02-06T20:46:48.845Z,16.20
2023-02-06T20:49:18.631Z,14.70
2023-02-06T20:51:48.919Z,13.80
2023-02-06T20:54:17.673Z,15.10
2023-02-06T20:56:45.631Z,15.00
2023-02-06T20:59:15.091Z,14.50
2023-02-06T21:01:43.508Z,15.80
2023-02-06T21:04:12.627Z,14.70
2023-02-06T21:06:40.685Z,15.60
2023-02-06T21:09:09.175Z,15.40
2023-02-06T21:11:43.008Z,17.40
2023-02-06T21:14:11.727Z,17.40
2023-02-06T21:16:39.840Z,17.70
2023-02-06T21:19:09.125Z,17.30
2023-02-06T21:21:37.551Z,19.20
2023-02-06T21:24:05.893Z,18.70
2023-02-06T21:26:34.138Z,18.80
2023-02-06T21:29:06.068Z,20.60
2023-02-06T21:31:37.874Z,18.60
2023-02-06T21:34:19.025Z,16.80
2023-02-06T21:36:48.168Z,17.40
2023-02-06T21:39:18.352Z,16.10
2023-02-06T21:41:47.028Z,22.60
2023-02-06T21:44:14.943Z,20.80
2023-02-06T21:46:42.854Z,18.60
2023-02-06T21:49:11.784Z,18.00
2023-02-06T21:51:40.132Z,17.90
2023-02-06T21:54:08.548Z,17.40
2023-02-06T21:56:38.210Z,18.80
2023-02-06T21:59:06.716Z,18.30
2023-02-06T22:01:35.570Z,16.80
2023-02-06T22:04:03.892Z,18.30
2023-02-06T22:06:35.454Z,17.80
2023-02-06T22:09:07.792Z,15.80
2023-02-06T22:11:39.239Z,15.80
2023-02-06T22:14:14.528Z,14.60
2023-02-06T22:16:42.769Z,14.30
2023-02-06T22:19:11.195Z,14.00
2023-02-06T22:21:39.128Z,17.00
2023-02-06T22:24:07.706Z,16.00
2023-02-06T22:26:38.642Z,17.10
2023-02-06T22:29:07.826Z,17.90
2023-02-06T22:31:38.936Z,17.00
2023-02-06T22:34:11.814Z,16.30
2023-02-06T22:36:39.726Z,15.70
2023-02-06T22:39:08.317Z,15.30
2023-02-06T22:41:38.660Z,16.10
2023-02-06T22:44:06.793Z,15.50
2023-02-06T22:46:36.472Z,15.00
2023-02-06T22:49:05.273Z,15.30
2023-02-06T22:51:34.179Z,14.70
2023-02-06T22:54:02.923Z,15.80
2023-02-06T22:56:36.001Z,12.90
2023-02-06T22:59:17.921Z,14.60
2023-02-06T23:01:53.090Z,16.20
2023-02-06T23:04:26.930Z,16.00
2023-02-06T23:06:55.389Z,15.90
2023-02-06T23:09:25.515Z,17.70
2023-02-06T23:12:01.214Z,17.20
2023-02-06T23:14:32.398Z,20.80
2023-02-06T23:17:00.897Z,18.60
2023-02-06T23:19:33.208Z,20.20
2023-02-06T23:22:03.764Z,18.80
2023-02-06T23:24:32.319Z,17.20
2023-02-06T23:27:06.244Z,16.10
2023-02-06T23:29:34.664Z,14.50
2023-02-06T23:32:02.505Z,14.30
2023-02-06T23:34:30.601Z,13.50
2023-02-06T23:36:58.476Z,15.30
2023-02-06T23:39:26.602Z,15.80
2023-02-06T23:41:54.448Z,17.90
2023-02-06T23:44:22.308Z,16.00
2023-02-06T23:46:50.910Z,18.30
2023-02-06T23:49:18.837Z,17.70
2023-02-06T23:51:47.117Z,17.70
2023-02-06T23:54:15.021Z,16.90
2023-02-06T23:56:46.125Z,18.40
2023-02-06T23:59:14.285Z,17.40
